createdAt,value
2017-07-31T00:01:34.171Z,76.40
2017-07-31T00:04:01.744Z,76.50
2017-07-31T00:06:29.293Z,76.60
2017-07-31T00:08:57.008Z,76.70
2017-07-31T00:11:25.271Z,77.10
2017-07-31T00:13:52.849Z,77.00
2017-07-31T00:16:20.344Z,76.90
2017-07-31T00:18:47.824Z,76.30
2017-07-31T00:21:15.329Z,76.50
2017-07-31T00:23:42.856Z,76.50
2017-07-31T00:26:10.627Z,76.50
2017-07-31T00:28:49.141Z,76.30
2017-07-31T00:31:17.409Z,76.40
2017-07-31T00:33:45.694Z,76.40
2017-07-31T00:36:13.533Z,76.30
2017-07-31T00:38:41.050Z,77.00
2017-07-31T00:41:09.475Z,78.30
2017-07-31T00:43:37.565Z,78.80
2017-07-31T00:46:06.188Z,77.00
2017-07-31T00:48:33.821Z,76.90
2017-07-31T00:51:01.372Z,77.20
2017-07-31T00:53:28.964Z,77.30
2017-07-31T00:55:56.620Z,77.50
2017-07-31T00:58:24.200Z,76.90
2017-07-31T01:00:51.742Z,76.80
2017-07-31T01:03:19.284Z,76.90
2017-07-31T01:05:46.933Z,76.90
2017-07-31T01:08:14.678Z,77.60
2017-07-31T01:10:42.354Z,77.10
2017-07-31T01:13:09.960Z,77.30
2017-07-31T01:15:37.762Z,76.90
2017-07-31T01:18:06.137Z,77.30
2017-07-31T01:20:33.732Z,77.30
2017-07-31T01:23:01.306Z,77.50
2017-07-31T01:25:29.448Z,77.60
2017-07-31T01:27:56.990Z,77.90
2017-07-31T01:30:24.513Z,78.50
2017-07-31T01:32:52.068Z,78.50
2017-07-31T01:35:19.719Z,78.80
2017-07-31T01:37:47.261Z,78.90
2017-07-31T01:40:14.764Z,78.80
2017-07-31T01:42:42.365Z,79.20
2017-07-31T01:45:10.760Z,79.20
2017-07-31T01:47:38.518Z,79.10
2017-07-31T01:50:07.179Z,79.10
2017-07-31T01:52:34.990Z,79.10
2017-07-31T01:55:02.727Z,78.80
2017-07-31T01:57:30.204Z,78.60
2017-07-31T01:59:57.862Z,78.40
2017-07-31T02:02:25.348Z,78.40
2017-07-31T02:04:52.852Z,78.80
2017-07-31T02:07:20.340Z,78.80
2017-07-31T02:09:48.019Z,78.90
2017-07-31T02:12:15.532Z,79.10
2017-07-31T02:14:43.025Z,79.30
2017-07-31T02:17:10.679Z,79.40
2017-07-31T02:19:39.521Z,79.80
2017-07-31T02:22:07.254Z,79.60
2017-07-31T02:24:34.866Z,79.20
2017-07-31T02:27:02.576Z,79.00
2017-07-31T02:29:30.055Z,78.80
2017-07-31T02:31:58.577Z,78.50
2017-07-31T02:34:26.095Z,78.90
2017-07-31T02:36:53.745Z,79.30
2017-07-31T02:39:21.281Z,79.40
2017-07-31T02:41:48.783Z,79.80
2017-07-31T02:44:16.295Z,80.40
2017-07-31T02:46:43.841Z,79.70
2017-07-31T02:49:11.360Z,79.50
2017-07-31T02:51:39.608Z,79.60
2017-07-31T02:54:07.453Z,79.50
2017-07-31T02:56:35.450Z,79.60
2017-07-31T02:59:02.989Z,79.90
2017-07-31T03:01:30.577Z,79.80
2017-07-31T03:03:58.255Z,79.90
2017-07-31T03:06:25.794Z,79.90
2017-07-31T03:08:53.353Z,79.80
2017-07-31T03:11:20.831Z,79.70
2017-07-31T03:13:48.340Z,79.50
2017-07-31T03:16:15.822Z,79.50
2017-07-31T03:18:43.385Z,79.20
2017-07-31T03:21:10.934Z,78.90
2017-07-31T03:23:38.553Z,79.30
2017-07-31T03:26:06.968Z,78.80
2017-07-31T03:28:34.537Z,78.80
2017-07-31T03:31:02.165Z,78.70
2017-07-31T03:33:29.657Z,78.60
2017-07-31T03:35:57.230Z,78.40
2017-07-31T03:38:24.801Z,78.60
2017-07-31T03:40:52.300Z,79.00
2017-07-31T03:43:19.885Z,78.90
2017-07-31T03:45:47.389Z,79.10
2017-07-31T03:48:14.876Z,79.30
2017-07-31T03:50:42.436Z,79.30
2017-07-31T03:53:19.844Z,79.30
2017-07-31T03:55:47.359Z,79.60
2017-07-31T03:58:14.889Z,80.30
2017-07-31T04:00:42.418Z,79.50
2017-07-31T04:03:09.967Z,79.50
2017-07-31T04:05:38.150Z,79.50
2017-07-31T04:08:05.908Z,79.30
2017-07-31T04:10:33.444Z,79.40
2017-07-31T04:13:00.965Z,79.70
2017-07-31T04:15:28.732Z,79.70
2017-07-31T04:17:56.293Z,79.70
2017-07-31T04:20:23.832Z,79.90
2017-07-31T04:22:51.460Z,80.10
2017-07-31T04:25:18.941Z,79.90
2017-07-31T04:27:46.528Z,79.70
2017-07-31T04:30:14.033Z,79.80
2017-07-31T04:32:41.553Z,79.80
2017-07-31T04:35:09.109Z,79.90
2017-07-31T04:37:36.908Z,79.90
2017-07-31T04:40:04.461Z,79.90
2017-07-31T04:42:32.107Z,79.70
2017-07-31T04:44:59.635Z,79.50
2017-07-31T04:47:27.361Z,79.50
2017-07-31T04:49:55.660Z,78.80
2017-07-31T04:52:23.149Z,78.80
2017-07-31T04:54:50.759Z,78.80
2017-07-31T04:57:18.294Z,78.10
2017-07-31T04:59:45.772Z,77.50
2017-07-31T05:02:13.372Z,76.80
2017-07-31T05:04:40.911Z,77.20
2017-07-31T05:07:08.562Z,76.50
2017-07-31T05:09:36.113Z,76.00
2017-07-31T05:12:03.762Z,74.90
2017-07-31T05:14:31.240Z,73.40
2017-07-31T05:16:58.757Z,72.30
2017-07-31T05:19:26.276Z,70.30
2017-07-31T05:21:53.858Z,69.70
2017-07-31T05:24:21.373Z,68.50
2017-07-31T05:26:48.852Z,68.10
2017-07-31T05:29:26.349Z,68.20
2017-07-31T05:31:53.869Z,68.90
2017-07-31T05:34:21.364Z,69.50
2017-07-31T05:36:49.637Z,67.10
2017-07-31T05:39:17.150Z,66.90
2017-07-31T05:41:44.727Z,65.10
2017-07-31T05:44:12.254Z,63.10
2017-07-31T05:46:40.197Z,60.80
2017-07-31T05:49:08.749Z,57.30
2017-07-31T05:51:36.849Z,57.30
2017-07-31T05:54:04.396Z,57.00
2017-07-31T05:56:31.897Z,56.60
2017-07-31T05:59:00.025Z,55.70
2017-07-31T06:01:27.648Z,54.70
2017-07-31T06:03:55.193Z,55.40
2017-07-31T06:06:22.737Z,55.40
2017-07-31T06:08:50.226Z,56.80
2017-07-31T06:11:19.931Z,58.30
2017-07-31T06:13:47.826Z,57.00
2017-07-31T06:16:16.733Z,56.60
2017-07-31T06:18:45.901Z,56.60
2017-07-31T06:21:14.681Z,55.80
2017-07-31T06:23:43.758Z,55.40
2017-07-31T06:26:13.709Z,54.20
2017-07-31T06:28:44.358Z,54.00
2017-07-31T06:31:14.776Z,52.80
2017-07-31T06:33:43.957Z,50.80
2017-07-31T06:36:13.671Z,50.50
2017-07-31T06:38:41.364Z,50.30
2017-07-31T06:41:12.470Z,50.00
2017-07-31T06:43:42.073Z,50.20
2017-07-31T06:46:10.090Z,49.10
2017-07-31T06:48:44.970Z,48.40
2017-07-31T06:51:13.459Z,47.00
2017-07-31T06:53:42.768Z,46.70
2017-07-31T06:56:11.862Z,47.60
2017-07-31T06:58:51.479Z,48.00
2017-07-31T07:01:18.978Z,46.80
2017-07-31T07:03:47.150Z,45.90
2017-07-31T07:06:15.455Z,47.60
2017-07-31T07:08:45.126Z,46.70
2017-07-31T07:11:15.105Z,47.40
2017-07-31T07:13:48.767Z,48.90
2017-07-31T07:16:16.933Z,49.30
2017-07-31T07:18:47.141Z,48.90
2017-07-31T07:21:16.248Z,48.70
2017-07-31T07:23:44.976Z,46.20
2017-07-31T07:26:14.908Z,47.20
2017-07-31T07:28:42.737Z,47.20
2017-07-31T07:31:14.294Z,48.40
2017-07-31T07:33:45.053Z,49.00
2017-07-31T07:36:13.534Z,49.60
2017-07-31T07:38:44.834Z,49.30
2017-07-31T07:41:14.153Z,49.10
2017-07-31T07:43:42.579Z,48.00
2017-07-31T07:46:13.320Z,45.40
2017-07-31T07:48:43.544Z,44.10
2017-07-31T07:51:12.865Z,44.00
2017-07-31T07:53:42.345Z,45.10
2017-07-31T07:56:17.908Z,43.80
2017-07-31T07:58:46.888Z,43.30
2017-07-31T08:01:27.751Z,44.40
2017-07-31T08:03:55.253Z,45.30
2017-07-31T08:06:22.822Z,43.70
2017-07-31T08:08:50.333Z,42.80
2017-07-31T08:11:20.409Z,42.30
2017-07-31T08:13:47.984Z,41.70
2017-07-31T08:16:15.969Z,42.10
2017-07-31T08:18:46.336Z,43.00
2017-07-31T08:21:16.505Z,41.90
2017-07-31T08:23:44.282Z,41.90
2017-07-31T08:26:15.023Z,42.70
2017-07-31T08:28:43.005Z,39.80
2017-07-31T08:31:20.333Z,41.40
2017-07-31T08:33:49.768Z,41.50
2017-07-31T08:36:20.369Z,40.90
2017-07-31T08:38:51.698Z,41.50
2017-07-31T08:41:21.510Z,41.70
2017-07-31T08:43:49.920Z,42.70
2017-07-31T08:46:19.489Z,40.70
2017-07-31T08:48:49.146Z,40.60
2017-07-31T08:51:21.789Z,40.60
2017-07-31T08:53:51.086Z,40.30
2017-07-31T08:56:20.239Z,40.50
2017-07-31T08:58:48.580Z,41.20
2017-07-31T09:01:16.923Z,40.40
2017-07-31T09:03:48.097Z,40.50
2017-07-31T09:06:19.406Z,41.10
2017-07-31T09:08:54.275Z,39.10
2017-07-31T09:11:26.458Z,39.10
2017-07-31T09:13:55.109Z,38.30
2017-07-31T09:16:33.221Z,38.10
2017-07-31T09:19:00.815Z,37.90
2017-07-31T09:21:28.357Z,36.50
2017-07-31T09:23:55.874Z,37.00
2017-07-31T09:26:24.129Z,37.20
2017-07-31T09:28:51.745Z,37.00
2017-07-31T09:31:25.796Z,37.30
2017-07-31T09:34:00.317Z,37.10
2017-07-31T09:36:27.826Z,37.10
2017-07-31T09:39:14.075Z,37.30
2017-07-31T09:41:50.254Z,37.60
2017-07-31T09:44:30.207Z,38.70
2017-07-31T09:46:57.765Z,37.20
2017-07-31T09:49:29.813Z,36.10
2017-07-31T09:51:57.360Z,37.40
2017-07-31T09:54:39.369Z,37.20
2017-07-31T09:57:13.556Z,36.80
2017-07-31T09:59:52.166Z,37.00
2017-07-31T10:02:19.649Z,34.50
2017-07-31T10:04:49.480Z,35.90
2017-07-31T10:07:18.357Z,35.80
2017-07-31T10:09:48.237Z,35.90
2017-07-31T10:12:26.152Z,35.20
2017-07-31T10:15:02.598Z,38.00
2017-07-31T10:17:30.100Z,37.90
2017-07-31T10:19:58.393Z,36.90
2017-07-31T10:22:45.036Z,37.10
2017-07-31T10:25:20.117Z,35.70
2017-07-31T10:27:49.444Z,35.70
2017-07-31T10:30:18.265Z,36.30
2017-07-31T10:32:47.828Z,37.20
2017-07-31T10:35:24.086Z,37.60
2017-07-31T10:37:56.402Z,37.70
2017-07-31T10:40:24.553Z,37.00
2017-07-31T10:42:52.048Z,36.70
2017-07-31T10:45:19.538Z,35.70
2017-07-31T10:47:47.761Z,35.80
2017-07-31T10:50:16.727Z,36.40
2017-07-31T10:52:46.261Z,33.90
2017-07-31T10:55:17.422Z,33.90
2017-07-31T10:57:46.681Z,33.30
2017-07-31T11:00:16.726Z,32.90
2017-07-31T11:02:46.433Z,32.00
2017-07-31T11:05:15.967Z,32.00
2017-07-31T11:07:46.132Z,33.20
2017-07-31T11:10:16.442Z,34.00
2017-07-31T11:12:48.988Z,33.80
2017-07-31T11:15:18.206Z,32.10
2017-07-31T11:17:47.368Z,32.20
2017-07-31T11:20:16.440Z,32.10
2017-07-31T11:25:29.515Z,34.30
2017-07-31T11:27:57.287Z,32.60
2017-07-31T11:30:25.569Z,33.90
2017-07-31T11:32:53.048Z,33.80
2017-07-31T11:35:20.557Z,33.40
2017-07-31T11:37:49.445Z,35.10
2017-07-31T11:40:17.285Z,35.10
2017-07-31T11:42:46.828Z,35.30
2017-07-31T11:45:15.702Z,34.30
2017-07-31T11:47:44.377Z,34.60
2017-07-31T11:50:13.252Z,34.30
2017-07-31T11:52:43.433Z,35.50
2017-07-31T11:55:11.765Z,35.90
2017-07-31T11:57:43.516Z,35.00
2017-07-31T12:00:13.695Z,34.20
2017-07-31T12:02:42.968Z,34.20
2017-07-31T12:05:13.374Z,33.90
2017-07-31T12:07:44.116Z,33.10
2017-07-31T12:10:13.061Z,35.60
2017-07-31T12:12:42.007Z,35.50
2017-07-31T12:15:12.540Z,34.40
2017-07-31T12:17:42.758Z,31.80
2017-07-31T12:20:13.765Z,30.80
2017-07-31T12:22:42.726Z,30.70
2017-07-31T12:25:11.527Z,29.60
2017-07-31T12:27:41.909Z,28.80
2017-07-31T12:30:12.801Z,28.80
2017-07-31T12:32:44.040Z,28.70
2017-07-31T12:35:13.691Z,27.50
2017-07-31T12:37:43.908Z,26.80
2017-07-31T12:40:16.195Z,28.70
2017-07-31T12:42:45.485Z,28.80
2017-07-31T12:45:16.157Z,27.40
2017-07-31T12:47:45.010Z,26.60
2017-07-31T12:50:13.840Z,26.60
2017-07-31T12:52:44.256Z,27.20
2017-07-31T12:55:17.501Z,27.20
2017-07-31T12:57:45.401Z,27.60
2017-07-31T13:00:14.302Z,27.60
2017-07-31T13:02:53.330Z,26.60
2017-07-31T13:05:20.917Z,27.00
2017-07-31T13:07:48.406Z,26.80
2017-07-31T13:10:17.150Z,26.60
2017-07-31T13:12:45.109Z,26.90
2017-07-31T13:15:13.705Z,29.60
2017-07-31T13:17:43.144Z,29.60
2017-07-31T13:20:14.025Z,31.10
2017-07-31T13:22:43.214Z,31.30
2017-07-31T13:25:12.826Z,31.80
2017-07-31T13:27:42.885Z,30.90
2017-07-31T13:30:13.364Z,30.80
2017-07-31T13:32:41.948Z,29.60
2017-07-31T13:35:12.780Z,27.80
2017-07-31T13:37:41.947Z,26.10
2017-07-31T13:40:11.200Z,25.00
2017-07-31T13:42:40.919Z,26.20
2017-07-31T13:45:11.082Z,25.00
2017-07-31T13:47:40.817Z,25.20
2017-07-31T13:50:10.482Z,26.50
2017-07-31T13:52:39.469Z,27.00
2017-07-31T13:55:09.127Z,26.40
2017-07-31T13:57:39.159Z,27.70
2017-07-31T14:00:10.111Z,28.10
2017-07-31T14:02:40.474Z,28.40
2017-07-31T14:05:09.355Z,28.70
2017-07-31T14:07:40.773Z,28.40
2017-07-31T14:10:09.860Z,28.70
2017-07-31T14:12:38.511Z,28.70
2017-07-31T14:15:08.227Z,29.30
2017-07-31T14:17:37.278Z,29.60
2017-07-31T14:20:05.530Z,30.30
2017-07-31T14:22:33.236Z,30.60
2017-07-31T14:25:00.964Z,30.00
2017-07-31T14:27:28.636Z,30.00
2017-07-31T14:29:56.182Z,29.80
2017-07-31T14:32:23.685Z,29.40
2017-07-31T14:34:51.265Z,29.80
2017-07-31T14:37:18.769Z,29.50
2017-07-31T14:39:46.664Z,30.40
2017-07-31T14:42:14.300Z,31.10
2017-07-31T14:44:42.969Z,31.30
2017-07-31T14:47:11.426Z,30.70
2017-07-31T14:49:41.377Z,29.70
2017-07-31T14:52:11.610Z,30.20
2017-07-31T14:54:40.472Z,30.20
2017-07-31T14:57:09.992Z,31.20
2017-07-31T14:59:39.741Z,31.00
2017-07-31T15:02:08.787Z,30.90
2017-07-31T15:04:40.849Z,30.30
2017-07-31T15:07:12.012Z,31.70
2017-07-31T15:09:40.939Z,30.50
2017-07-31T15:12:20.605Z,30.40
2017-07-31T15:14:48.180Z,29.80
2017-07-31T15:17:25.829Z,29.80
2017-07-31T15:19:53.335Z,30.70
2017-07-31T15:22:20.877Z,30.50
2017-07-31T15:24:48.434Z,30.00
2017-07-31T15:27:16.004Z,31.10
2017-07-31T15:29:43.915Z,30.00
2017-07-31T15:32:12.069Z,29.80
2017-07-31T15:34:41.892Z,30.00
2017-07-31T15:37:13.003Z,30.00
2017-07-31T15:39:41.599Z,30.30
2017-07-31T15:42:11.610Z,29.90
2017-07-31T15:44:42.283Z,30.60
2017-07-31T15:47:13.543Z,30.50
2017-07-31T15:49:42.900Z,30.70
2017-07-31T15:52:11.217Z,31.70
2017-07-31T15:54:39.195Z,31.20
2017-07-31T15:57:10.404Z,31.50
2017-07-31T15:59:40.560Z,30.90
2017-07-31T16:02:09.771Z,31.50
2017-07-31T16:04:39.600Z,31.20
2017-07-31T16:07:10.443Z,31.70
2017-07-31T16:09:42.029Z,31.90
2017-07-31T16:12:11.859Z,31.90
2017-07-31T16:14:49.028Z,30.60
2017-07-31T16:17:17.497Z,31.20
2017-07-31T16:19:46.927Z,31.90
2017-07-31T16:22:15.437Z,33.80
2017-07-31T16:24:45.116Z,32.80
2017-07-31T16:27:16.252Z,32.30
2017-07-31T16:29:44.414Z,32.70
2017-07-31T16:32:13.401Z,33.60
2017-07-31T16:34:45.939Z,33.30
2017-07-31T16:37:25.564Z,33.30
2017-07-31T16:39:53.078Z,33.40
2017-07-31T16:42:43.628Z,34.30
2017-07-31T16:45:11.845Z,34.50
2017-07-31T16:47:44.968Z,33.70
2017-07-31T16:50:14.865Z,33.10
2017-07-31T16:52:47.658Z,34.20
2017-07-31T16:55:15.840Z,34.20
2017-07-31T16:57:46.723Z,35.00
2017-07-31T17:00:15.813Z,34.40
2017-07-31T17:02:43.599Z,34.40
2017-07-31T17:05:12.211Z,34.80
2017-07-31T17:07:40.784Z,34.80
2017-07-31T17:10:09.956Z,35.20
2017-07-31T17:12:39.093Z,35.50
2017-07-31T17:15:07.496Z,34.90
2017-07-31T17:17:35.410Z,34.20
2017-07-31T17:20:03.601Z,34.10
2017-07-31T17:22:31.736Z,34.40
2017-07-31T17:25:00.084Z,34.70
2017-07-31T17:27:28.275Z,37.10
2017-07-31T17:29:56.751Z,36.40
2017-07-31T17:32:26.159Z,37.10
2017-07-31T17:34:54.969Z,37.80
2017-07-31T17:37:22.462Z,38.40
2017-07-31T17:39:50.756Z,39.90
2017-07-31T17:42:23.168Z,40.20
2017-07-31T17:44:54.215Z,40.20
2017-07-31T17:47:22.359Z,40.30
2017-07-31T17:49:50.245Z,40.60
2017-07-31T17:52:20.904Z,40.70
2017-07-31T17:54:49.475Z,40.70
2017-07-31T17:57:17.073Z,40.50
2017-07-31T17:59:55.065Z,40.40
2017-07-31T18:02:22.608Z,40.90
2017-07-31T18:04:50.152Z,41.00
2017-07-31T18:07:17.692Z,41.70
2017-07-31T18:09:45.368Z,42.20
2017-07-31T18:12:13.109Z,42.10
2017-07-31T18:14:50.589Z,42.30
2017-07-31T18:17:18.085Z,42.40
2017-07-31T18:19:46.473Z,42.50
2017-07-31T18:22:14.985Z,43.20
2017-07-31T18:24:43.768Z,42.90
2017-07-31T18:27:11.285Z,42.90
2017-07-31T18:29:38.773Z,43.10
2017-07-31T18:32:06.361Z,43.20
2017-07-31T18:34:33.907Z,43.50
2017-07-31T18:37:01.425Z,43.50
2017-07-31T18:39:30.107Z,44.00
2017-07-31T18:41:58.052Z,43.80
2017-07-31T18:44:27.185Z,43.70
2017-07-31T18:46:55.783Z,43.90
2017-07-31T18:49:23.524Z,44.20
2017-07-31T18:51:52.434Z,45.10
2017-07-31T18:54:19.985Z,45.10
2017-07-31T18:56:47.541Z,45.20
2017-07-31T18:59:15.075Z,45.30
2017-07-31T19:01:42.620Z,46.00
2017-07-31T19:04:10.160Z,46.10
2017-07-31T19:06:37.649Z,46.30
2017-07-31T19:09:05.150Z,46.70
2017-07-31T19:11:32.645Z,46.60
2017-07-31T19:14:00.180Z,47.00
2017-07-31T19:16:27.829Z,47.70
2017-07-31T19:18:57.309Z,48.90
2017-07-31T19:21:25.333Z,48.80
2017-07-31T19:23:53.322Z,48.90
2017-07-31T19:26:21.102Z,49.50
2017-07-31T19:28:48.964Z,49.70
2017-07-31T19:31:17.370Z,50.30
2017-07-31T19:33:45.359Z,50.40
2017-07-31T19:36:13.733Z,51.00
2017-07-31T19:38:41.877Z,51.00
2017-07-31T19:41:09.372Z,51.50
2017-07-31T19:43:36.851Z,52.00
2017-07-31T19:46:04.480Z,52.60
2017-07-31T19:48:31.993Z,53.00
2017-07-31T19:51:12.441Z,52.90
2017-07-31T19:53:39.929Z,53.10
2017-07-31T19:56:07.436Z,53.00
2017-07-31T19:58:34.968Z,52.90
2017-07-31T20:01:02.468Z,53.70
2017-07-31T20:03:30.311Z,53.90
2017-07-31T20:05:59.102Z,54.00
2017-07-31T20:08:27.942Z,53.90
2017-07-31T20:10:57.546Z,54.20
2017-07-31T20:13:26.944Z,54.60
2017-07-31T20:15:57.938Z,54.20
2017-07-31T20:18:26.324Z,54.20
2017-07-31T20:20:57.145Z,54.50
2017-07-31T20:23:27.197Z,54.80
2017-07-31T20:25:56.303Z,54.80
2017-07-31T20:28:28.281Z,55.20
2017-07-31T20:30:58.244Z,55.00
2017-07-31T20:33:27.304Z,54.20
2017-07-31T20:35:57.345Z,52.30
2017-07-31T20:38:27.593Z,51.80
2017-07-31T20:40:57.238Z,51.20
2017-07-31T20:43:27.101Z,51.40
2017-07-31T20:45:56.275Z,51.30
2017-07-31T20:48:27.183Z,51.60
2017-07-31T20:50:57.755Z,51.60
2017-07-31T20:53:27.840Z,51.30
2017-07-31T20:55:57.461Z,51.20
2017-07-31T20:58:27.798Z,51.20
2017-07-31T21:00:59.401Z,51.80
2017-07-31T21:03:29.792Z,51.60
2017-07-31T21:05:59.272Z,51.90
2017-07-31T21:08:28.514Z,51.20
2017-07-31T21:10:58.177Z,51.10
2017-07-31T21:13:29.324Z,51.30
2017-07-31T21:15:58.372Z,50.80
2017-07-31T21:18:28.932Z,51.50
2017-07-31T21:20:58.893Z,51.50
2017-07-31T21:23:28.677Z,52.10
2017-07-31T21:25:59.211Z,52.00
2017-07-31T21:28:28.628Z,52.40
2017-07-31T21:30:58.614Z,52.30
2017-07-31T21:33:29.344Z,52.30
2017-07-31T21:35:58.646Z,52.30
2017-07-31T21:38:28.640Z,51.70
2017-07-31T21:40:58.615Z,51.40
2017-07-31T21:43:27.465Z,51.80
2017-07-31T21:45:56.555Z,52.30
2017-07-31T21:48:26.679Z,51.90
2017-07-31T21:50:59.280Z,51.90
2017-07-31T21:53:27.882Z,51.90
2017-07-31T21:55:56.193Z,51.90
2017-07-31T21:58:26.990Z,52.20
2017-07-31T22:00:57.179Z,51.90
2017-07-31T22:03:28.478Z,51.90
2017-07-31T22:06:00.125Z,52.00
2017-07-31T22:08:28.606Z,51.80
2017-07-31T22:10:59.295Z,52.20
2017-07-31T22:13:27.765Z,51.90
2017-07-31T22:15:58.737Z,52.20
2017-07-31T22:18:27.785Z,52.40
2017-07-31T22:21:02.669Z,52.60
2017-07-31T22:23:31.062Z,53.10
2017-07-31T22:25:58.550Z,52.50
2017-07-31T22:28:26.249Z,52.60
2017-07-31T22:30:53.810Z,52.70
2017-07-31T22:33:21.329Z,53.00
2017-07-31T22:35:48.957Z,53.00
2017-07-31T22:38:16.964Z,52.90
2017-07-31T22:40:46.385Z,53.00
2017-07-31T22:43:14.873Z,52.80
2017-07-31T22:45:42.489Z,52.80
2017-07-31T22:48:10.801Z,52.80
2017-07-31T22:50:38.341Z,52.80
2017-07-31T22:53:05.884Z,53.10
2017-07-31T22:55:33.461Z,53.40
2017-07-31T22:58:00.969Z,53.50
2017-07-31T23:00:28.508Z,53.00
2017-07-31T23:02:55.994Z,54.00
2017-07-31T23:05:23.601Z,53.40
2017-07-31T23:07:51.081Z,53.00
2017-07-31T23:10:18.721Z,52.80
2017-07-31T23:12:46.309Z,52.50
2017-07-31T23:15:14.054Z,52.60
2017-07-31T23:17:42.452Z,55.30
2017-07-31T23:20:10.120Z,55.30
2017-07-31T23:22:37.700Z,56.40
2017-07-31T23:25:05.261Z,59.80
2017-07-31T23:27:32.934Z,61.70
2017-07-31T23:30:00.563Z,63.70
2017-07-31T23:32:28.076Z,66.20
2017-07-31T23:34:55.630Z,60.20
2017-07-31T23:37:23.170Z,62.40
2017-07-31T23:39:50.718Z,64.00
2017-07-31T23:42:18.278Z,63.60
2017-07-31T23:44:47.165Z,64.90
2017-07-31T23:47:14.708Z,65.00
2017-07-31T23:49:42.357Z,64.80
2017-07-31T23:52:10.668Z,69.60
2017-07-31T23:54:38.922Z,69.10
2017-07-31T23:57:07.200Z,68.10
2017-07-31T23:59:34.748Z,68.00
